Time;durP1;ratioP1;P1;durP2;ratioP2;P2;SDS_P1;SDS_P2;PMS_P1;PMS_P2;Temp;Humidity;BMP_temperature;BMP_pressure;BME280_temperature;BME280_humidity;BME280_pressure;Samples;Min_cycle;Max_cycle;Signal;HPM_P1;HPM_P2
2021/01/18 00:00:06;;;;;;;27.40;17.67;;;;;;;;;;5062653;28;20031;-38
2021/01/18 00:02:32;;;;;;;20.60;16.88;;;;;;;;;;5061307;28;20048;-39
2021/01/18 00:04:57;;;;;;;20.50;16.30;;;;;;;;;;5062713;28;20381;-40
2021/01/18 00:07:22;;;;;;;27.73;18.67;;;;;;;;;;5067825;28;20807;-42
2021/01/18 00:09:48;;;;;;;24.48;16.23;;;;;;;;;;5065273;28;20048;-40
2021/01/18 00:12:13;;;;;;;22.27;14.23;;;;;;;;;;5067624;28;20036;-40
2021/01/18 00:14:38;;;;;;;16.17;14.35;;;;;;;;;;5068440;28;20567;-41
2021/01/18 00:17:07;;;;;;;16.52;14.35;;;;;;;;;;5068145;28;20468;-38
2021/01/18 00:19:32;;;;;;;22.45;14.32;;;;;;;;;;5068050;28;20024;-37
2021/01/18 00:21:57;;;;;;;22.15;17.38;;;;;;;;;;5067404;28;20039;-40
2021/01/18 00:24:23;;;;;;;29.25;19.65;;;;;;;;;;5068012;28;20436;-38
2021/01/18 00:26:48;;;;;;;23.65;16.95;;;;;;;;;;5067755;28;20162;-36
2021/01/18 00:29:13;;;;;;;22.92;17.17;;;;;;;;;;5082924;28;20052;-37
2021/01/18 00:31:43;;;;;;;22.52;16.05;;;;;;;;;;5082973;28;20123;-39
2021/01/18 00:34:08;;;;;;;21.05;17.27;;;;;;;;;;5067710;28;20032;-37
2021/01/18 00:36:33;;;;;;;18.75;16.70;;;;;;;;;;5083249;28;20017;-38
2021/01/18 00:38:59;;;;;;;23.65;17.65;;;;;;;;;;5082865;28;20043;-37
2021/01/18 00:41:24;;;;;;;20.33;14.82;;;;;;;;;;5067664;28;20035;-36
2021/01/18 00:43:49;;;;;;;32.00;16.25;;;;;;;;;;5067689;28;20105;-36
2021/01/18 00:46:17;;;;;;;18.73;14.40;;;;;;;;;;5066026;28;20021;-41
2021/01/18 00:48:42;;;;;;;15.43;12.02;;;;;;;;;;5066953;28;20125;-36
2021/01/18 00:51:07;;;;;;;14.77;11.13;;;;;;;;;;5067356;28;20477;-37
2021/01/18 00:53:33;;;;;;;19.17;10.43;;;;;;;;;;5066920;28;20036;-39
2021/01/18 00:55:58;;;;;;;11.27;9.77;;;;;;;;;;5065652;28;20034;-38
2021/01/18 00:58:24;;;;;;;14.10;8.15;;;;;;;;;;5064127;28;20316;-38
2021/01/18 01:00:49;;;;;;;11.15;8.02;;;;;;;;;;5067179;28;20082;-38
2021/01/18 01:03:14;;;;;;;16.40;7.72;;;;;;;;;;5066474;28;20099;-36
2021/01/18 01:05:39;;;;;;;11.98;8.40;;;;;;;;;;5067583;28;20468;-37
2021/01/18 01:08:05;;;;;;;16.20;9.00;;;;;;;;;;5067305;28;20036;-38
2021/01/18 01:10:32;;;;;;;13.02;4.25;;;;;;;;;;5067342;28;20050;-40
2021/01/18 01:13:00;;;;;;;11.18;8.98;;;;;;;;;;5067315;28;20465;-36
2021/01/18 01:15:26;;;;;;;10.48;8.15;;;;;;;;;;5082922;28;20021;-36
2021/01/18 01:17:51;;;;;;;7.50;4.57;;;;;;;;;;5063877;28;20020;-36
2021/01/18 01:20:17;;;;;;;13.07;9.13;;;;;;;;;;5062227;28;20522;-37
2021/01/18 01:22:42;;;;;;;21.88;10.02;;;;;;;;;;5067124;28;20592;-36
2021/01/18 01:25:09;;;;;;;8.30;5.75;;;;;;;;;;5067176;28;20205;-37
2021/01/18 01:27:34;;;;;;;13.02;8.23;;;;;;;;;;5067092;28;20029;-38
2021/01/18 01:29:59;;;;;;;11.40;7.82;;;;;;;;;;5066944;28;20029;-36
2021/01/18 01:32:25;;;;;;;12.73;8.63;;;;;;;;;;5067081;28;20147;-38
2021/01/18 01:34:50;;;;;;;13.48;7.68;;;;;;;;;;5067106;28;20033;-36
2021/01/18 01:37:15;;;;;;;11.10;6.00;;;;;;;;;;5066850;28;20021;-38
2021/01/18 01:39:41;;;;;;;15.57;9.05;;;;;;;;;;5067185;28;20417;-36
2021/01/18 01:42:16;;;;;;;14.68;9.43;;;;;;;;;;5082396;28;20436;-35
2021/01/18 01:44:41;;;;;;;15.45;8.73;;;;;;;;;;5066999;28;20383;-35
2021/01/18 01:47:07;;;;;;;15.25;7.50;;;;;;;;;;5067066;28;20472;-38
2021/01/18 01:49:32;;;;;;;14.23;7.25;;;;;;;;;;5067325;28;20054;-38
2021/01/18 01:51:58;;;;;;;10.30;6.90;;;;;;;;;;5066626;28;20078;-37
2021/01/18 01:54:23;;;;;;;10.88;5.75;;;;;;;;;;5066029;28;20460;-35
2021/01/18 01:56:48;;;;;;;14.55;4.78;;;;;;;;;;5066555;28;20025;-36
2021/01/18 01:59:15;;;;;;;10.32;4.70;;;;;;;;;;5068772;28;20085;-39
2021/01/18 02:01:40;;;;;;;8.57;4.45;;;;;;;;;;5070458;28;20779;-35
2021/01/18 02:04:06;;;;;;;14.85;6.28;;;;;;;;;;5070659;28;20143;-41
2021/01/18 02:06:31;;;;;;;9.15;6.15;;;;;;;;;;5070784;28;20037;-41
2021/01/18 02:08:56;;;;;;;8.30;5.15;;;;;;;;;;5070546;28;20025;-38
2021/01/18 02:11:22;;;;;;;10.10;5.70;;;;;;;;;;5070711;28;20452;-35
2021/01/18 02:13:53;;;;;;;16.90;7.63;;;;;;;;;;5070429;28;20028;-35
2021/01/18 02:16:25;;;;;;;11.13;8.07;;;;;;;;;;5070272;28;20032;-41
2021/01/18 02:18:50;;;;;;;;;;;;;;;;;;5070884;28;20044;-35
2021/01/18 02:21:24;;;;;;;15.88;7.38;;;;;;;;;;5070248;28;20285;-40
2021/01/18 02:23:53;;;;;;;23.52;9.85;;;;;;;;;;5069654;28;20052;-39
2021/01/18 02:26:24;;;;;;;18.77;6.25;;;;;;;;;;5069980;28;20472;-37
2021/01/18 02:29:08;;;;;;;10.48;5.70;;;;;;;;;;5070008;28;20068;-37
2021/01/18 02:31:49;;;;;;;7.93;6.18;;;;;;;;;;5069798;28;20040;-41
2021/01/18 02:34:14;;;;;;;;;;;;;;;;;;5070609;28;20044;-36
2021/01/18 02:37:10;;;;;;;15.15;7.35;;;;;;;;;;5085009;28;19923;-37
2021/01/18 02:39:48;;;;;;;12.02;10.70;;;;;;;;;;5069255;28;20028;-39
2021/01/18 02:42:28;;;;;;;12.73;10.25;;;;;;;;;;5069939;28;20086;-35
2021/01/18 02:44:57;;;;;;;12.85;8.88;;;;;;;;;;5070065;28;20829;-35
2021/01/18 02:47:23;;;;;;;10.88;9.73;;;;;;;;;;5069701;28;20078;-36
2021/01/18 02:49:51;;;;;;;16.42;10.68;;;;;;;;;;5062717;28;20062;-36
2021/01/18 02:52:16;;;;;;;13.45;8.75;;;;;;;;;;5067076;28;20086;-40
2021/01/18 02:54:42;;;;;;;10.50;8.77;;;;;;;;;;5069750;28;20016;-36
2021/01/18 02:57:14;;;;;;;14.30;8.18;;;;;;;;;;5068919;28;20024;-42
2021/01/18 02:59:41;;;;;;;9.23;5.65;;;;;;;;;;5069508;28;20036;-38
2021/01/18 03:02:09;;;;;;;13.23;6.28;;;;;;;;;;5068917;28;20028;-37
2021/01/18 03:04:53;;;;;;;13.00;9.23;;;;;;;;;;5070362;28;20048;-35
2021/01/18 03:07:30;;;;;;;9.02;5.57;;;;;;;;;;5072352;28;20028;-38
2021/01/18 03:09:59;;;;;;;28.10;6.97;;;;;;;;;;5071625;28;20520;-34
2021/01/18 03:12:25;;;;;;;12.00;4.78;;;;;;;;;;5071998;28;20692;-35
2021/01/18 03:14:53;;;;;;;7.75;4.25;;;;;;;;;;5071936;28;20052;-35
2021/01/18 03:17:20;;;;;;;11.75;5.97;;;;;;;;;;5072311;28;20025;-36
2021/01/18 03:19:46;;;;;;;6.68;4.72;;;;;;;;;;5071964;28;20028;-36
2021/01/18 03:22:22;;;;;;;8.23;4.45;;;;;;;;;;5072101;28;20024;-35
2021/01/18 03:24:47;;;;;;;13.77;4.00;;;;;;;;;;5071999;28;20020;-35
2021/01/18 03:27:12;;;;;;;12.85;6.88;;;;;;;;;;5071849;28;20393;-35
2021/01/18 03:29:38;;;;;;;11.43;7.25;;;;;;;;;;5071982;28;20052;-35
2021/01/18 03:32:03;;;;;;;8.18;5.68;;;;;;;;;;5071655;28;20091;-38
2021/01/18 03:34:28;;;;;;;13.88;5.80;;;;;;;;;;5071623;28;20029;-37
2021/01/18 03:36:54;;;;;;;13.55;5.97;;;;;;;;;;5071827;28;20028;-38
2021/01/18 03:39:19;;;;;;;9.88;6.15;;;;;;;;;;5071617;28;20040;-37
2021/01/18 03:41:45;;;;;;;11.88;7.13;;;;;;;;;;5071553;28;20388;-39
2021/01/18 03:44:10;;;;;;;8.68;6.05;;;;;;;;;;5072004;28;20116;-35
2021/01/18 03:46:36;;;;;;;6.32;4.68;;;;;;;;;;5071194;28;20092;-39
2021/01/18 03:49:01;;;;;;;9.88;5.13;;;;;;;;;;5086707;28;20439;-36
2021/01/18 03:51:30;;;;;;;6.40;3.45;;;;;;;;;;5071395;28;20025;-35
2021/01/18 03:53:56;;;;;;;8.88;4.75;;;;;;;;;;5071274;28;20043;-35
2021/01/18 03:56:21;;;;;;;13.45;4.82;;;;;;;;;;5071230;28;20457;-35
2021/01/18 03:58:46;;;;;;;6.78;3.78;;;;;;;;;;5071201;28;20028;-36
2021/01/18 04:01:12;;;;;;;16.83;5.75;;;;;;;;;;5070919;28;20028;-36
2021/01/18 04:03:37;;;;;;;8.40;2.75;;;;;;;;;;5070731;28;20028;-36
2021/01/18 04:06:02;;;;;;;8.88;5.07;;;;;;;;;;5070830;28;20034;-37
2021/01/18 04:08:28;;;;;;;10.05;6.50;;;;;;;;;;5071216;28;20107;-35
2021/01/18 04:10:53;;;;;;;13.77;7.85;;;;;;;;;;5071046;28;20384;-35
2021/01/18 04:13:18;;;;;;;14.57;4.95;;;;;;;;;;5071115;28;20067;-36
2021/01/18 04:15:43;;;;;;;7.32;5.53;;;;;;;;;;5070758;28;20071;-35
2021/01/18 04:18:09;;;;;;;7.55;4.85;;;;;;;;;;5070972;28;20374;-39
2021/01/18 04:20:34;;;;;;;5.55;3.70;;;;;;;;;;5070842;28;20020;-36
2021/01/18 04:23:04;;;;;;;7.07;3.65;;;;;;;;;;5086173;28;20511;-36
2021/01/18 04:25:29;;;;;;;4.93;3.50;;;;;;;;;;5070863;28;20033;-38
2021/01/18 04:27:55;;;;;;;10.68;4.63;;;;;;;;;;5070813;28;20064;-35
2021/01/18 04:30:22;;;;;;;16.27;5.32;;;;;;;;;;5086142;28;20483;-35
2021/01/18 04:32:57;;;;;;;8.80;4.90;;;;;;;;;;5070468;28;20492;-37
2021/01/18 04:35:23;;;;;;;6.88;2.88;;;;;;;;;;5070379;28;20113;-38
2021/01/18 04:37:49;;;;;;;6.63;5.43;;;;;;;;;;5070134;28;20440;-36
2021/01/18 04:40:16;;;;;;;8.13;3.58;;;;;;;;;;5070139;28;20103;-36
2021/01/18 04:42:42;;;;;;;5.90;2.60;;;;;;;;;;5070440;28;20111;-36
2021/01/18 04:45:07;;;;;;;5.38;1.63;;;;;;;;;;5070653;28;20024;-35
2021/01/18 04:47:33;;;;;;;4.90;2.95;;;;;;;;;;5070382;28;20035;-36
2021/01/18 04:49:59;;;;;;;3.28;1.90;;;;;;;;;;5070553;28;20717;-37
2021/01/18 04:52:45;;;;;;;12.52;3.13;;;;;;;;;;5069776;28;20090;-35
2021/01/18 04:55:16;;;;;;;7.55;3.28;;;;;;;;;;5069628;28;20040;-35
2021/01/18 04:57:41;;;;;;;;;;;;;;;;;;5070818;28;20073;-34
2021/01/18 05:00:07;;;;;;;7.82;1.95;;;;;;;;;;5069935;28;20323;-35
2021/01/18 05:02:38;;;;;;;5.70;2.78;;;;;;;;;;5069676;28;20086;-35
2021/01/18 05:05:07;;;;;;;8.48;4.10;;;;;;;;;;5069981;28;20031;-36
2021/01/18 05:07:35;;;;;;;6.38;3.42;;;;;;;;;;5070397;28;20428;-36
2021/01/18 05:10:07;;;;;;;9.90;3.65;;;;;;;;;;5069869;28;20472;-36
2021/01/18 05:12:43;;;;;;;5.80;3.63;;;;;;;;;;5069657;28;20063;-35
2021/01/18 05:15:09;;;;;;;5.10;3.08;;;;;;;;;;5070034;28;20119;-35
2021/01/18 05:17:34;;;;;;;12.05;4.13;;;;;;;;;;5070166;28;20044;-35
2021/01/18 05:20:01;;;;;;;3.40;2.25;;;;;;;;;;5070266;28;20415;-36
2021/01/18 05:22:26;;;;;;;6.88;1.63;;;;;;;;;;5069942;28;20025;-35
2021/01/18 05:24:53;;;;;;;4.68;2.28;;;;;;;;;;5069836;28;20070;-35
2021/01/18 05:27:18;;;;;;;4.57;3.08;;;;;;;;;;5069721;28;20075;-36
2021/01/18 05:29:44;;;;;;;5.18;3.78;;;;;;;;;;5070418;28;20503;-35
2021/01/18 05:32:19;;;;;;;7.32;4.50;;;;;;;;;;5071471;28;20047;-39
2021/01/18 05:34:45;;;;;;;7.75;3.88;;;;;;;;;;5073860;28;20017;-40
2021/01/18 05:37:12;;;;;;;6.32;3.25;;;;;;;;;;5072739;28;20074;-35
2021/01/18 05:39:37;;;;;;;14.30;7.95;;;;;;;;;;5073267;28;20078;-36
2021/01/18 05:42:07;;;;;;;17.52;5.88;;;;;;;;;;5069839;28;20025;-35
2021/01/18 05:44:33;;;;;;;9.07;3.85;;;;;;;;;;5069666;28;20122;-36
2021/01/18 05:47:03;;;;;;;10.52;4.97;;;;;;;;;;5069476;28;20107;-48
2021/01/18 05:49:37;;;;;;;10.50;7.63;;;;;;;;;;5055568;28;20501;-36
2021/01/18 05:52:03;;;;;;;13.68;5.10;;;;;;;;;;5064369;28;20060;-41
2021/01/18 05:54:28;;;;;;;7.32;5.18;;;;;;;;;;5066961;28;20050;-38
2021/01/18 05:56:54;;;;;;;11.00;4.60;;;;;;;;;;5067142;28;20043;-38
2021/01/18 05:59:20;;;;;;;7.30;4.95;;;;;;;;;;5066221;28;20032;-39
2021/01/18 06:01:47;;;;;;;5.68;3.63;;;;;;;;;;5067501;28;20032;-37
2021/01/18 06:04:13;;;;;;;8.77;7.30;;;;;;;;;;5066927;28;20056;-39
2021/01/18 06:06:40;;;;;;;16.45;6.30;;;;;;;;;;5067567;28;20024;-44
2021/01/18 06:09:05;;;;;;;9.77;5.40;;;;;;;;;;5067079;28;20092;-39
2021/01/18 06:11:31;;;;;;;8.90;4.05;;;;;;;;;;5067427;28;20202;-45
2021/01/18 06:14:03;;;;;;;7.70;5.05;;;;;;;;;;5067046;28;20032;-40
2021/01/18 06:16:30;;;;;;;6.05;4.05;;;;;;;;;;5067500;28;20036;-39
2021/01/18 06:18:59;;;;;;;5.18;3.15;;;;;;;;;;5066838;28;20052;-37
2021/01/18 06:21:33;;;;;;;7.28;5.05;;;;;;;;;;5067366;28;20033;-41
2021/01/18 06:24:12;;;;;;;11.45;4.10;;;;;;;;;;5068103;28;20037;-36
2021/01/18 06:26:37;;;;;;;7.55;3.30;;;;;;;;;;5068304;28;20108;-38
2021/01/18 06:29:02;;;;;;;4.40;2.85;;;;;;;;;;5066715;28;20431;-41
2021/01/18 06:31:42;;;;;;;6.63;4.47;;;;;;;;;;5066598;28;20118;-39
2021/01/18 06:34:07;;;;;;;18.85;5.63;;;;;;;;;;5066141;28;20426;-42
2021/01/18 06:36:34;;;;;;;6.15;4.20;;;;;;;;;;5066519;28;20028;-39
2021/01/18 06:38:59;;;;;;;5.47;3.05;;;;;;;;;;5065279;28;20043;-43
2021/01/18 06:41:25;;;;;;;11.43;4.32;;;;;;;;;;5082092;28;20024;-38
2021/01/18 06:43:50;;;;;;;4.97;3.55;;;;;;;;;;5080123;28;20048;-40
2021/01/18 06:46:17;;;;;;;16.95;5.13;;;;;;;;;;5066377;28;20630;-38
2021/01/18 06:48:43;;;;;;;5.05;4.03;;;;;;;;;;5065750;28;20036;-37
2021/01/18 06:51:13;;;;;;;18.02;6.50;;;;;;;;;;5066290;28;20062;-37
2021/01/18 06:53:42;;;;;;;9.15;7.15;;;;;;;;;;5072001;28;20519;-56
2021/01/18 06:56:10;;;;;;;12.23;9.02;;;;;;;;;;5070761;28;20492;-57
2021/01/18 06:58:53;;;;;;;28.55;9.32;;;;;;;;;;5071409;28;20035;-59
2021/01/18 07:01:26;;;;;;;13.32;8.55;;;;;;;;;;5072223;28;20024;-57
2021/01/18 07:03:54;;;;;;;9.55;6.88;;;;;;;;;;5072689;28;20078;-54
2021/01/18 07:06:28;;;;;;;9.98;6.53;;;;;;;;;;5072221;28;20029;-58
2021/01/18 07:08:56;;;;;;;18.25;15.10;;;;;;;;;;5072267;28;20036;-58
2021/01/18 07:11:22;;;;;;;11.73;8.52;;;;;;;;;;5071168;28;20037;-55
2021/01/18 07:13:48;;;;;;;18.40;10.50;;;;;;;;;;5072033;28;20040;-56
2021/01/18 07:16:16;;;;;;;23.45;11.43;;;;;;;;;;5072145;28;20025;-56
2021/01/18 07:18:44;;;;;;;30.25;15.00;;;;;;;;;;5071353;28;20057;-55
2021/01/18 07:21:10;;;;;;;19.10;5.90;;;;;;;;;;5072239;28;20520;-53
2021/01/18 07:23:38;;;;;;;9.70;5.30;;;;;;;;;;5072400;28;20043;-56
2021/01/18 07:26:10;;;;;;;8.88;4.45;;;;;;;;;;5072094;28;20025;-58
2021/01/18 07:28:35;;;;;;;9.27;6.63;;;;;;;;;;5071642;28;20056;-54
2021/01/18 07:31:01;;;;;;;34.50;21.50;;;;;;;;;;5071093;28;20434;-58
2021/01/18 07:33:26;;;;;;;34.55;19.90;;;;;;;;;;5066656;28;20039;-59
2021/01/18 07:35:52;;;;;;;17.23;10.82;;;;;;;;;;5070248;28;20020;-56
2021/01/18 07:38:18;;;;;;;24.92;15.43;;;;;;;;;;5061065;28;20028;-55
2021/01/18 07:41:02;;;;;;;22.73;8.85;;;;;;;;;;5064052;28;20052;-59
2021/01/18 07:43:45;;;;;;;40.20;11.00;;;;;;;;;;5065672;28;20067;-60
2021/01/18 07:46:29;;;;;;;36.72;13.55;;;;;;;;;;5065288;28;20021;-60
2021/01/18 07:48:55;;;;;;;51.25;16.48;;;;;;;;;;5065564;28;20071;-58
2021/01/18 07:51:21;;;;;;;22.90;14.70;;;;;;;;;;5065541;28;20114;-59
2021/01/18 07:53:46;;;;;;;32.33;11.35;;;;;;;;;;5065167;28;20457;-60
2021/01/18 07:56:22;;;;;;;12.93;9.50;;;;;;;;;;5065113;28;20028;-59
2021/01/18 07:58:55;;;;;;;24.83;14.95;;;;;;;;;;5065335;28;20029;-57
2021/01/18 08:01:26;;;;;;;22.35;16.17;;;;;;;;;;5066264;28;20086;-54
2021/01/18 08:03:51;;;;;;;32.22;16.63;;;;;;;;;;5065551;28;20074;-59
2021/01/18 08:06:19;;;;;;;23.88;19.20;;;;;;;;;;5065610;28;20024;-59
2021/01/18 08:08:44;;;;;;;38.13;22.55;;;;;;;;;;5064110;28;20111;-59
2021/01/18 08:11:19;;;;;;;38.33;24.27;;;;;;;;;;5064272;28;20056;-56
2021/01/18 08:13:54;;;;;;;56.65;39.35;;;;;;;;;;5063906;28;20790;-59
2021/01/18 08:16:27;;;;;;;39.63;27.33;;;;;;;;;;5064825;28;20025;-60
2021/01/18 08:18:58;;;;;;;49.63;26.30;;;;;;;;;;5064285;28;20035;-58
2021/01/18 08:21:32;;;;;;;36.90;21.00;;;;;;;;;;5064642;28;20035;-57
2021/01/18 08:23:58;;;;;;;46.38;24.45;;;;;;;;;;5063861;28;20569;-59
2021/01/18 08:26:23;;;;;;;50.70;25.08;;;;;;;;;;5064234;28;20021;-57
2021/01/18 08:28:49;;;;;;;62.17;37.42;;;;;;;;;;5064137;28;20139;-59
2021/01/18 08:31:14;;;;;;;53.75;35.75;;;;;;;;;;5064663;28;20028;-56
2021/01/18 08:33:40;;;;;;;48.05;40.33;;;;;;;;;;5065277;28;20555;-56
2021/01/18 08:36:06;;;;;;;42.63;33.30;;;;;;;;;;5064249;28;20179;-59
2021/01/18 08:38:31;;;;;;;50.78;35.42;;;;;;;;;;5063921;28;20119;-59
2021/01/18 08:41:01;;;;;;;70.97;36.55;;;;;;;;;;5064312;28;20562;-58
2021/01/18 08:43:43;;;;;;;48.72;39.15;;;;;;;;;;5067310;28;20085;-56
2021/01/18 08:46:28;;;;;;;40.22;31.20;;;;;;;;;;5069623;28;20036;-57
2021/01/18 08:49:14;;;;;;;38.60;34.45;;;;;;;;;;5068324;28;20043;-58
2021/01/18 08:51:49;;;;;;;52.88;32.55;;;;;;;;;;5070141;28;20557;-58
2021/01/18 08:54:35;;;;;;;48.10;36.63;;;;;;;;;;5070247;28;20040;-57
2021/01/18 08:57:18;;;;;;;35.38;30.27;;;;;;;;;;5070121;28;20037;-57
2021/01/18 08:59:44;;;;;;;47.65;33.78;;;;;;;;;;5070262;28;20040;-56
2021/01/18 09:02:16;;;;;;;43.42;32.80;;;;;;;;;;5070226;28;20468;-55
2021/01/18 09:04:42;;;;;;;56.42;36.85;;;;;;;;;;5069655;28;20055;-60
2021/01/18 09:07:09;;;;;;;48.35;37.38;;;;;;;;;;5069514;28;20020;-58
2021/01/18 09:09:38;;;;;;;54.55;42.70;;;;;;;;;;5068923;28;20048;-59
2021/01/18 09:12:04;;;;;;;62.30;48.67;;;;;;;;;;5069619;28;20030;-57
2021/01/18 09:14:30;;;;;;;60.95;44.47;;;;;;;;;;5069823;28;20039;-60
2021/01/18 09:17:06;;;;;;;75.10;44.40;;;;;;;;;;5069526;28;20051;-55
2021/01/18 09:19:31;;;;;;;56.67;44.45;;;;;;;;;;5069825;28;20460;-57
2021/01/18 09:21:56;;;;;;;57.45;41.92;;;;;;;;;;5069145;28;20024;-55
2021/01/18 09:24:22;;;;;;;62.90;44.08;;;;;;;;;;5069963;28;20093;-56
2021/01/18 09:26:47;;;;;;;65.35;45.10;;;;;;;;;;5069548;28;20024;-59
2021/01/18 09:29:20;;;;;;;64.68;46.63;;;;;;;;;;5069819;28;20056;-55
2021/01/18 09:31:47;;;;;;;59.33;45.97;;;;;;;;;;5070189;28;20086;-58
2021/01/18 09:34:12;;;;;;;67.38;48.67;;;;;;;;;;5100333;28;20039;-56
2021/01/18 09:36:41;;;;;;;83.40;65.45;;;;;;;;;;5059406;28;20025;-56
2021/01/18 09:39:06;;;;;;;61.33;49.03;;;;;;;;;;5070255;28;20561;-57
2021/01/18 09:41:32;;;;;;;74.55;46.45;;;;;;;;;;5070017;28;20480;-57
2021/01/18 09:43:57;;;;;;;49.63;36.42;;;;;;;;;;5070092;28;20431;-57
2021/01/18 09:46:23;;;;;;;34.63;27.55;;;;;;;;;;5054992;28;20041;-55
2021/01/18 09:48:49;;;;;;;26.52;20.70;;;;;;;;;;5060605;28;20112;-58
2021/01/18 09:51:15;;;;;;;30.95;22.55;;;;;;;;;;5063669;28;20020;-61
2021/01/18 09:53:41;;;;;;;47.70;31.08;;;;;;;;;;5063914;28;20465;-56
2021/01/18 09:56:13;;;;;;;59.40;43.42;;;;;;;;;;5063583;28;20036;-62
2021/01/18 09:58:42;;;;;;;53.60;43.08;;;;;;;;;;5063929;28;20028;-54
2021/01/18 10:01:08;;;;;;;47.88;38.05;;;;;;;;;;5063491;28;20157;-55
2021/01/18 10:03:37;;;;;;;47.50;38.83;;;;;;;;;;5064046;28;20436;-56
2021/01/18 10:06:08;;;;;;;64.15;49.50;;;;;;;;;;5063431;28;20032;-56
2021/01/18 10:08:35;;;;;;;67.65;48.28;;;;;;;;;;5065288;28;20060;-60
2021/01/18 10:11:00;;;;;;;75.68;49.90;;;;;;;;;;5064784;28;20170;-59
2021/01/18 10:13:26;;;;;;;49.55;40.45;;;;;;;;;;5064259;28;20040;-55
2021/01/18 10:15:51;;;;;;;48.08;36.13;;;;;;;;;;5062490;28;20464;-57
2021/01/18 10:18:36;;;;;;;42.08;33.60;;;;;;;;;;5065519;28;20025;-59
2021/01/18 10:21:02;;;;;;;46.92;32.00;;;;;;;;;;5082146;28;20059;-58
2021/01/18 10:23:31;;;;;;;75.72;59.72;;;;;;;;;;5066291;28;20449;-59
2021/01/18 10:26:13;;;;;;;58.85;41.78;;;;;;;;;;5066879;28;20724;-59
2021/01/18 10:28:38;;;;;;;;;;;;;;;;;;5067719;28;20117;-58
2021/01/18 10:31:03;;;;;;;38.83;26.38;;;;;;;;;;5066691;28;19912;-58
2021/01/18 10:33:29;;;;;;;39.00;26.63;;;;;;;;;;5066397;28;20051;-60
2021/01/18 10:35:54;;;;;;;38.63;30.95;;;;;;;;;;5066634;28;20054;-58
2021/01/18 10:38:20;;;;;;;52.00;35.83;;;;;;;;;;5067687;28;20094;-57
2021/01/18 10:41:02;;;;;;;38.03;29.33;;;;;;;;;;5067756;28;20069;-60
2021/01/18 10:43:28;;;;;;;54.13;36.00;;;;;;;;;;5067539;28;20036;-55
2021/01/18 10:45:54;;;;;;;43.63;34.20;;;;;;;;;;5064675;28;20031;-58
2021/01/18 10:48:25;;;;;;;45.88;36.55;;;;;;;;;;5066709;28;20032;-60
2021/01/18 10:50:54;;;;;;;42.83;34.97;;;;;;;;;;5066604;28;20094;-59
2021/01/18 10:53:25;;;;;;;47.08;37.58;;;;;;;;;;5066919;28;20044;-60
2021/01/18 10:55:51;;;;;;;52.58;38.05;;;;;;;;;;5066429;28;20032;-59
2021/01/18 10:58:26;;;;;;;62.83;41.13;;;;;;;;;;5066168;28;20028;-58
2021/01/18 11:00:51;;;;;;;62.17;41.08;;;;;;;;;;5066503;28;20040;-58
2021/01/18 11:03:22;;;;;;;60.17;40.15;;;;;;;;;;5066030;28;20029;-59
2021/01/18 11:05:47;;;;;;;52.47;45.90;;;;;;;;;;5065710;28;20025;-59
2021/01/18 11:08:13;;;;;;;102.13;91.20;;;;;;;;;;5066417;28;20047;-60
2021/01/18 11:10:39;;;;;;;57.25;50.92;;;;;;;;;;5081240;28;20068;-58
2021/01/18 11:13:09;;;;;;;51.03;34.85;;;;;;;;;;5081467;28;20050;-59
2021/01/18 11:15:38;;;;;;;35.03;31.23;;;;;;;;;;5066883;28;20086;-62
2021/01/18 11:18:04;;;;;;;50.58;30.10;;;;;;;;;;5066428;28;20035;-60
2021/01/18 11:20:30;;;;;;;86.45;45.78;;;;;;;;;;5065761;28;20060;-63
2021/01/18 11:22:55;;;;;;;64.15;47.33;;;;;;;;;;5065743;28;20076;-59
2021/01/18 11:25:21;;;;;;;48.60;40.40;;;;;;;;;;5066333;28;20027;-59
2021/01/18 11:27:47;;;;;;;58.42;33.83;;;;;;;;;;5063927;28;20028;-59
2021/01/18 11:30:12;;;;;;;49.83;31.50;;;;;;;;;;5062518;28;20024;-59
2021/01/18 11:32:38;;;;;;;37.03;26.52;;;;;;;;;;5064636;28;20434;-59
2021/01/18 11:35:04;;;;;;;39.67;29.05;;;;;;;;;;5065698;28;20435;-61
2021/01/18 11:37:29;;;;;;;58.78;25.42;;;;;;;;;;5065441;28;20037;-59
2021/01/18 11:39:54;;;;;;;34.58;24.38;;;;;;;;;;5080778;28;20115;-59
2021/01/18 11:42:19;;;;;;;51.17;34.33;;;;;;;;;;5065971;28;20451;-60
2021/01/18 11:44:45;;;;;;;83.72;56.25;;;;;;;;;;5082100;28;20137;-63
2021/01/18 11:47:10;;;;;;;104.05;69.35;;;;;;;;;;5065403;28;20051;-60
2021/01/18 11:49:35;;;;;;;85.68;64.07;;;;;;;;;;5066157;28;20028;-59
2021/01/18 11:52:01;;;;;;;47.88;40.90;;;;;;;;;;5065629;28;20028;-63
2021/01/18 11:54:26;;;;;;;35.47;29.27;;;;;;;;;;5065678;28;20036;-54
2021/01/18 11:56:51;;;;;;;32.58;18.35;;;;;;;;;;5065331;28;20492;-57
2021/01/18 11:59:17;;;;;;;12.30;10.95;;;;;;;;;;5065380;28;20441;-59
2021/01/18 12:01:42;;;;;;;49.17;29.85;;;;;;;;;;5065284;28;20036;-61
2021/01/18 12:04:08;;;;;;;42.03;29.40;;;;;;;;;;5065595;28;20712;-58
2021/01/18 12:06:34;;;;;;;50.25;25.08;;;;;;;;;;5065086;28;20099;-61
2021/01/18 12:08:59;;;;;;;27.17;17.35;;;;;;;;;;5065286;28;20028;-61
2021/01/18 12:11:25;;;;;;;29.70;15.23;;;;;;;;;;5064886;28;20033;-60
2021/01/18 12:13:50;;;;;;;27.08;16.45;;;;;;;;;;5065218;28;20036;-60
2021/01/18 12:16:21;;;;;;;20.67;12.60;;;;;;;;;;5065108;28;20028;-60
2021/01/18 12:18:47;;;;;;;39.58;15.38;;;;;;;;;;5066447;28;20032;-62
2021/01/18 12:21:12;;;;;;;23.27;17.23;;;;;;;;;;5066189;28;20039;-56
2021/01/18 12:23:37;;;;;;;42.80;17.83;;;;;;;;;;5065708;28;20104;-59
2021/01/18 12:26:02;;;;;;;25.90;16.67;;;;;;;;;;5065467;28;20017;-59
2021/01/18 12:28:28;;;;;;;20.35;16.60;;;;;;;;;;5065266;28;20145;-58
2021/01/18 12:30:56;;;;;;;39.15;19.40;;;;;;;;;;5064735;28;20040;-59
2021/01/18 12:33:22;;;;;;;29.27;16.95;;;;;;;;;;5065228;28;20663;-62
2021/01/18 12:35:47;;;;;;;22.50;14.75;;;;;;;;;;5064645;28;20028;-62
2021/01/18 12:38:12;;;;;;;19.92;15.77;;;;;;;;;;5064870;28;20036;-61
2021/01/18 12:40:37;;;;;;;34.17;22.02;;;;;;;;;;5064872;28;20089;-59
2021/01/18 12:43:03;;;;;;;32.38;19.65;;;;;;;;;;5064639;28;20050;-60
2021/01/18 12:45:29;;;;;;;38.63;25.75;;;;;;;;;;5063235;28;20032;-63
2021/01/18 12:47:54;;;;;;;32.35;23.38;;;;;;;;;;5063066;28;20702;-61
2021/01/18 12:50:20;;;;;;;38.28;21.70;;;;;;;;;;5062839;28;20082;-58
2021/01/18 12:52:46;;;;;;;43.60;24.95;;;;;;;;;;5062282;28;20036;-61
2021/01/18 12:55:11;;;;;;;37.38;30.33;;;;;;;;;;5061103;28;20079;-57
2021/01/18 12:57:36;;;;;;;59.33;34.63;;;;;;;;;;5061310;28;20107;-60
2021/01/18 13:00:03;;;;;;;55.53;35.85;;;;;;;;;;5063467;28;20107;-59
2021/01/18 13:02:29;;;;;;;57.13;39.10;;;;;;;;;;5063819;28;20024;-60
2021/01/18 13:04:54;;;;;;;72.63;46.47;;;;;;;;;;5063597;28;20028;-58
2021/01/18 13:07:19;;;;;;;78.68;47.50;;;;;;;;;;5062401;28;20020;-59
2021/01/18 13:09:45;;;;;;;63.75;44.28;;;;;;;;;;5062688;28;20024;-59
2021/01/18 13:12:10;;;;;;;44.10;33.03;;;;;;;;;;5062237;28;20192;-60
2021/01/18 13:14:35;;;;;;;38.85;26.20;;;;;;;;;;5062757;28;20499;-60
2021/01/18 13:17:01;;;;;;;42.28;25.50;;;;;;;;;;5062607;28;20048;-60
2021/01/18 13:19:26;;;;;;;33.55;25.42;;;;;;;;;;5063022;28;20032;-61
2021/01/18 13:21:52;;;;;;;26.23;16.00;;;;;;;;;;5063170;28;20457;-59
2021/01/18 13:24:18;;;;;;;18.60;11.32;;;;;;;;;;5063883;28;20020;-60
2021/01/18 13:26:43;;;;;;;23.73;13.20;;;;;;;;;;5063297;28;20032;-59
2021/01/18 13:29:08;;;;;;;17.08;9.77;;;;;;;;;;5063705;28;20064;-60
2021/01/18 13:31:37;;;;;;;28.65;11.38;;;;;;;;;;5063733;28;20033;-61
2021/01/18 13:34:03;;;;;;;31.05;10.65;;;;;;;;;;5063918;28;20033;-59
2021/01/18 13:36:28;;;;;;;14.10;9.05;;;;;;;;;;5062455;28;20558;-61
2021/01/18 13:38:54;;;;;;;19.40;14.70;;;;;;;;;;5063573;28;20028;-61
2021/01/18 13:41:22;;;;;;;23.63;9.43;;;;;;;;;;5078171;28;20108;-58
2021/01/18 13:43:48;;;;;;;23.48;10.38;;;;;;;;;;5061955;28;20048;-54
2021/01/18 13:46:17;;;;;;;12.80;7.25;;;;;;;;;;5063437;28;20024;-57
2021/01/18 13:48:43;;;;;;;19.08;4.95;;;;;;;;;;5061019;28;20029;-60
2021/01/18 13:51:12;;;;;;;14.25;5.72;;;;;;;;;;5079119;28;20571;-59
2021/01/18 13:53:38;;;;;;;19.77;8.65;;;;;;;;;;5066429;28;20029;-60
2021/01/18 13:56:03;;;;;;;18.75;8.05;;;;;;;;;;5067731;28;20032;-60
2021/01/18 13:58:29;;;;;;;14.95;7.95;;;;;;;;;;5068125;28;20029;-61
2021/01/18 14:00:54;;;;;;;24.55;7.13;;;;;;;;;;5067882;28;20036;-59
2021/01/18 14:03:19;;;;;;;25.95;6.15;;;;;;;;;;5084402;28;20033;-59
2021/01/18 14:05:44;;;;;;;8.85;4.07;;;;;;;;;;5068762;28;20101;-61
2021/01/18 14:08:10;;;;;;;14.73;6.68;;;;;;;;;;5068476;28;20043;-61
2021/01/18 14:10:35;;;;;;;9.20;5.47;;;;;;;;;;5067218;28;20029;-59
2021/01/18 14:13:00;;;;;;;27.20;10.88;;;;;;;;;;5067563;28;20036;-62
2021/01/18 14:15:26;;;;;;;27.65;9.95;;;;;;;;;;5067068;28;20032;-61
2021/01/18 14:17:52;;;;;;;10.48;6.80;;;;;;;;;;5067525;28;20105;-60
2021/01/18 14:20:17;;;;;;;27.02;8.10;;;;;;;;;;5067235;28;20081;-62
2021/01/18 14:22:42;;;;;;;15.73;7.20;;;;;;;;;;5067311;28;20067;-62
2021/01/18 14:25:11;;;;;;;14.63;6.10;;;;;;;;;;5067197;28;20040;-60
2021/01/18 14:27:36;;;;;;;66.95;14.85;;;;;;;;;;5082120;28;20033;-63
2021/01/18 14:30:03;;;;;;;36.67;11.25;;;;;;;;;;5068268;28;20032;-60